Time;durP1;ratioP1;P1;durP2;ratioP2;P2;SDS_P1;SDS_P2;PMS_P1;PMS_P2;Temp;Humidity;BMP_temperature;BMP_pressure;BME280_temperature;BME280_humidity;BME280_pressure;Samples;Min_cycle;Max_cycle;Signal;HPM_P1;HPM_P2
2023/04/29 00:01:58;;;;;;;49.35;23.90;;;9.10;99.90;;;;;;4950786;28;20496;-59
2023/04/29 00:04:25;;;;;;;51.78;23.92;;;9.10;99.90;;;;;;4959394;28;20057;-58
2023/04/29 00:06:50;;;;;;;50.85;23.60;;;9.10;99.90;;;;;;4940867;28;20054;-58
2023/04/29 00:09:16;;;;;;;45.30;22.08;;;9.00;99.90;;;;;;4943391;28;20085;-59
2023/04/29 00:11:42;;;;;;;46.25;23.52;;;9.00;99.90;;;;;;4945698;28;20042;-57
2023/04/29 00:14:08;;;;;;;35.65;21.67;;;9.00;99.90;;;;;;4959877;28;20421;-57
2023/04/29 00:16:34;;;;;;;44.75;23.25;;;9.00;99.90;;;;;;4939476;28;20054;-59
2023/04/29 00:19:00;;;;;;;40.97;22.50;;;9.00;99.90;;;;;;4961274;28;20067;-57
2023/04/29 00:21:28;;;;;;;37.58;22.85;;;9.00;99.90;;;;;;4944373;28;20416;-58
2023/04/29 00:23:54;;;;;;;40.80;22.15;;;9.00;99.90;;;;;;4955941;28;20046;-58
2023/04/29 00:26:20;;;;;;;45.38;22.33;;;9.00;99.90;;;;;;4958658;28;20050;-57
2023/04/29 00:28:46;;;;;;;44.22;21.92;;;9.00;99.90;;;;;;4942385;28;20042;-57
2023/04/29 00:31:11;;;;;;;41.17;21.73;;;9.00;99.90;;;;;;4958177;28;20039;-57
2023/04/29 00:33:39;;;;;;;35.35;21.08;;;8.90;99.90;;;;;;4944856;28;20142;-57
2023/04/29 00:36:05;;;;;;;40.30;21.13;;;8.90;99.90;;;;;;4958653;28;20058;-58
2023/04/29 00:38:31;;;;;;;36.13;20.15;;;8.90;99.90;;;;;;4957836;28;20058;-57
2023/04/29 00:40:57;;;;;;;37.05;20.08;;;8.90;99.90;;;;;;4958188;28;21327;-57
2023/04/29 00:43:23;;;;;;;37.17;21.10;;;8.90;99.90;;;;;;4962817;28;20089;-58
2023/04/29 00:45:49;;;;;;;36.60;20.45;;;8.90;99.90;;;;;;4960413;28;20054;-58
2023/04/29 00:48:15;;;;;;;36.00;19.90;;;8.90;99.90;;;;;;4962420;28;20111;-57
2023/04/29 00:50:41;;;;;;;39.83;20.23;;;8.90;99.90;;;;;;4944105;28;20114;-58
2023/04/29 00:53:08;;;;;;;32.25;20.20;;;8.90;99.90;;;;;;4963092;28;20145;-58
2023/04/29 00:55:35;;;;;;;38.33;19.85;;;8.90;99.90;;;;;;4957605;28;20389;-57
2023/04/29 00:58:03;;;;;;;36.35;19.38;;;8.90;99.90;;;;;;4944618;28;20053;-58
2023/04/29 01:00:29;;;;;;;31.42;18.00;;;8.90;99.90;;;;;;4947201;28;20054;-58
2023/04/29 01:02:56;;;;;;;32.72;19.17;;;8.90;99.90;;;;;;4947931;28;20038;-57
2023/04/29 01:05:23;;;;;;;35.88;19.98;;;8.90;99.90;;;;;;4952622;28;20046;-57
2023/04/29 01:08:07;;;;;;;34.40;19.90;;;8.90;99.90;;;;;;4956510;28;20105;-58
2023/04/29 01:10:47;;;;;;;35.50;20.02;;;8.90;99.90;;;;;;4959083;28;20069;-56
2023/04/29 01:13:33;;;;;;;33.03;18.58;;;8.80;99.90;;;;;;4947435;28;20050;-57
2023/04/29 01:16:02;;;;;;;32.92;18.60;;;8.80;99.90;;;;;;4962127;28;20049;-57
2023/04/29 01:18:40;;;;;;;33.00;19.05;;;8.80;99.90;;;;;;4942471;28;20064;-57
2023/04/29 01:21:06;;;;;;;30.98;19.55;;;8.80;99.90;;;;;;4961926;28;20454;-57
2023/04/29 01:23:32;;;;;;;33.13;19.58;;;8.80;99.90;;;;;;4930561;28;20117;-57
2023/04/29 01:25:58;;;;;;;33.78;19.70;;;8.80;99.90;;;;;;4943701;28;20066;-58
2023/04/29 01:28:50;;;;;;;31.48;18.95;;;8.80;99.90;;;;;;4947500;28;20260;-58
2023/04/29 01:31:19;;;;;;;30.27;19.50;;;8.80;99.90;;;;;;4960115;28;21227;-58
2023/04/29 01:34:13;;;;;;;32.42;19.55;;;8.80;99.90;;;;;;4942687;28;20046;-58
2023/04/29 01:37:03;;;;;;;36.60;20.90;;;8.80;99.90;;;;;;4957514;28;20046;-59
2023/04/29 01:39:30;;;;;;;34.17;20.55;;;8.80;99.90;;;;;;4964922;28;20545;-57
2023/04/29 01:42:18;;;;;;;38.30;21.48;;;8.80;99.90;;;;;;4961057;28;20166;-58
2023/04/29 01:44:48;;;;;;;36.35;20.73;;;8.80;99.90;;;;;;4959181;28;20521;-58
2023/04/29 01:47:14;;;;;;;35.42;21.38;;;8.80;99.90;;;;;;4964222;28;20626;-58
2023/04/29 01:49:39;;;;;;;34.70;20.35;;;8.70;99.90;;;;;;4968336;28;20035;-57
2023/04/29 01:52:06;;;;;;;34.13;20.45;;;8.70;99.90;;;;;;4964924;28;20093;-57
2023/04/29 01:54:35;;;;;;;33.72;20.67;;;8.60;99.90;;;;;;4969000;28;20042;-58
2023/04/29 01:57:01;;;;;;;39.55;20.98;;;8.60;99.90;;;;;;4966366;28;20125;-58
2023/04/29 01:59:27;;;;;;;38.17;21.73;;;8.60;99.90;;;;;;4966384;28;20529;-58
2023/04/29 02:01:55;;;;;;;39.58;20.90;;;8.50;99.90;;;;;;4944636;28;20038;-57
2023/04/29 02:04:21;;;;;;;33.55;19.42;;;8.50;99.90;;;;;;4955538;28;20093;-57
2023/04/29 02:06:46;;;;;;;38.05;20.45;;;8.40;99.90;;;;;;4965527;28;20062;-58
2023/04/29 02:09:12;;;;;;;38.92;21.55;;;8.40;99.90;;;;;;4967067;28;20057;-58
2023/04/29 02:11:38;;;;;;;35.80;21.35;;;8.30;99.90;;;;;;4966498;28;20169;-57
2023/04/29 02:14:04;;;;;;;39.17;21.00;;;8.30;99.90;;;;;;4965562;28;20046;-57
2023/04/29 02:16:29;;;;;;;37.08;20.60;;;8.30;99.90;;;;;;4963196;28;20057;-58
2023/04/29 02:18:55;;;;;;;39.25;20.88;;;8.20;99.90;;;;;;4966809;28;20072;-58
2023/04/29 02:21:21;;;;;;;38.55;20.13;;;8.20;99.90;;;;;;4954843;28;20138;-57
2023/04/29 02:23:46;;;;;;;38.97;20.35;;;8.20;99.90;;;;;;4947169;28;20050;-59
2023/04/29 02:26:14;;;;;;;37.17;19.75;;;8.20;99.90;;;;;;4946409;28;20058;-58
2023/04/29 02:28:39;;;;;;;34.28;19.95;;;8.10;99.90;;;;;;4961330;28;20101;-57
2023/04/29 02:31:05;;;;;;;33.70;19.95;;;8.10;99.90;;;;;;4943991;28;22003;-58
2023/04/29 02:33:31;;;;;;;35.42;19.85;;;8.10;99.90;;;;;;4949412;28;20046;-57
2023/04/29 02:35:58;;;;;;;34.65;20.67;;;8.10;99.90;;;;;;4961845;28;20069;-57
2023/04/29 02:38:24;;;;;;;36.33;21.52;;;8.10;99.90;;;;;;4966201;28;20061;-57
2023/04/29 02:40:50;;;;;;;38.20;22.58;;;8.10;99.90;;;;;;4948160;28;20417;-58
2023/04/29 02:43:16;;;;;;;40.28;22.55;;;8.10;99.90;;;;;;4947862;28;20157;-57
2023/04/29 02:45:42;;;;;;;38.13;22.65;;;8.20;99.90;;;;;;4961395;28;20060;-57
2023/04/29 02:48:08;;;;;;;36.38;21.65;;;8.20;99.90;;;;;;4953066;28;20142;-58
2023/04/29 02:50:34;;;;;;;39.92;22.25;;;8.20;99.90;;;;;;4961675;28;20481;-58
2023/04/29 02:53:00;;;;;;;41.25;22.33;;;8.20;99.90;;;;;;4963196;28;20058;-55
2023/04/29 02:55:26;;;;;;;40.55;22.60;;;8.30;99.90;;;;;;4945905;28;20497;-56
2023/04/29 02:57:52;;;;;;;41.17;23.95;;;8.30;99.90;;;;;;4965072;28;20046;-59
2023/04/29 03:00:17;;;;;;;46.45;24.17;;;8.30;99.90;;;;;;4947408;28;20062;-57
2023/04/29 03:02:43;;;;;;;46.22;23.10;;;8.30;99.90;;;;;;4956268;28;20096;-57
2023/04/29 03:05:09;;;;;;;36.53;23.20;;;8.40;99.90;;;;;;4965358;28;20418;-58
2023/04/29 03:07:35;;;;;;;45.42;23.05;;;8.40;99.90;;;;;;4947976;28;20052;-58
2023/04/29 03:10:00;;;;;;;39.70;22.80;;;8.50;99.90;;;;;;4945524;28;20034;-57
2023/04/29 03:12:26;;;;;;;38.30;23.35;;;8.40;99.90;;;;;;4950547;28;20121;-57
2023/04/29 03:14:52;;;;;;;42.60;22.33;;;8.40;99.90;;;;;;4963174;28;20039;-57
2023/04/29 03:17:18;;;;;;;37.90;21.05;;;8.40;99.90;;;;;;4964218;28;20058;-58
2023/04/29 03:19:43;;;;;;;34.85;19.70;;;8.50;99.90;;;;;;4941678;28;20062;-58
2023/04/29 03:22:10;;;;;;;39.25;20.08;;;8.50;99.90;;;;;;4953096;28;20045;-57
2023/04/29 03:24:36;;;;;;;38.28;20.02;;;8.50;99.90;;;;;;4948335;28;20471;-57
2023/04/29 03:27:03;;;;;;;35.63;19.60;;;8.50;99.90;;;;;;4947633;28;20120;-58
2023/04/29 03:29:29;;;;;;;31.92;19.23;;;8.50;99.90;;;;;;4966611;28;20046;-58
2023/04/29 03:31:55;;;;;;;36.58;19.38;;;8.40;99.90;;;;;;4963715;28;20081;-56
2023/04/29 03:34:22;;;;;;;32.50;17.40;;;8.50;99.90;;;;;;4967299;28;20648;-57
2023/04/29 03:36:47;;;;;;;36.15;17.02;;;8.50;99.90;;;;;;4963837;28;20042;-58
2023/04/29 03:39:13;;;;;;;31.25;15.85;;;8.50;99.90;;;;;;4964857;28;20042;-56
2023/04/29 03:41:39;;;;;;;34.63;16.10;;;8.50;99.90;;;;;;4965956;28;20042;-59
2023/04/29 03:44:05;;;;;;;31.70;16.38;;;8.50;99.90;;;;;;4964251;28;20217;-57
2023/04/29 03:46:31;;;;;;;33.88;16.35;;;8.50;99.90;;;;;;4944407;28;20057;-58
2023/04/29 03:48:56;;;;;;;30.15;16.38;;;8.50;99.90;;;;;;4962064;28;20047;-57
2023/04/29 03:51:25;;;;;;;32.30;15.68;;;8.50;99.90;;;;;;4965222;28;20034;-57
2023/04/29 03:53:53;;;;;;;35.65;16.45;;;8.50;99.90;;;;;;4964892;28;20128;-57
2023/04/29 03:56:19;;;;;;;35.03;16.10;;;8.60;99.90;;;;;;4965160;28;20074;-58
2023/04/29 03:58:45;;;;;;;36.25;16.15;;;8.60;99.90;;;;;;4967279;28;20047;-57
2023/04/29 04:01:11;;;;;;;25.50;15.13;;;8.50;99.90;;;;;;4934324;28;20109;-58
2023/04/29 04:03:37;;;;;;;30.02;16.25;;;8.60;99.90;;;;;;4964439;28;20061;-58
2023/04/29 04:06:03;;;;;;;30.75;16.55;;;8.60;99.90;;;;;;4959738;28;20054;-58
2023/04/29 04:08:29;;;;;;;33.60;16.42;;;8.60;99.90;;;;;;4946850;28;20541;-57
2023/04/29 04:11:01;;;;;;;32.67;16.60;;;8.60;99.90;;;;;;4963120;28;21030;-58
2023/04/29 04:13:30;;;;;;;30.67;16.92;;;8.60;99.90;;;;;;4947397;28;21119;-58
2023/04/29 04:15:56;;;;;;;33.97;16.20;;;8.50;99.90;;;;;;4962133;28;20113;-58
2023/04/29 04:18:22;;;;;;;32.25;16.63;;;8.50;99.90;;;;;;4963265;28;20066;-57
2023/04/29 04:20:48;;;;;;;32.67;15.43;;;8.60;99.90;;;;;;4963186;28;20046;-57
2023/04/29 04:23:14;;;;;;;33.97;15.20;;;8.60;99.90;;;;;;4962510;28;20053;-58
2023/04/29 04:25:47;;;;;;;31.23;15.25;;;8.50;99.90;;;;;;4948132;28;20144;-58
2023/04/29 04:28:13;;;;;;;29.65;14.77;;;8.60;99.90;;;;;;4964191;28;20978;-57
2023/04/29 04:30:39;;;;;;;31.00;14.38;;;8.60;99.90;;;;;;4965457;28;20038;-57
2023/04/29 04:33:05;;;;;;;28.52;15.18;;;8.60;99.90;;;;;;4963089;28;20579;-58
2023/04/29 04:35:31;;;;;;;27.20;14.50;;;8.50;99.90;;;;;;4964132;28;20054;-58
2023/04/29 04:37:57;;;;;;;27.00;14.07;;;8.60;99.90;;;;;;4965381;28;20130;-57
2023/04/29 04:40:23;;;;;;;31.13;14.02;;;8.50;99.90;;;;;;4964700;28;20871;-57
2023/04/29 04:42:49;;;;;;;31.98;14.05;;;8.50;99.90;;;;;;4952603;28;20049;-58
2023/04/29 04:45:14;;;;;;;28.05;13.23;;;8.50;99.90;;;;;;4942882;28;20058;-58
2023/04/29 04:47:41;;;;;;;26.33;13.95;;;8.50;99.90;;;;;;4963443;28;20042;-57
2023/04/29 04:50:07;;;;;;;26.23;13.85;;;8.50;99.90;;;;;;4963689;28;20508;-58
2023/04/29 04:52:33;;;;;;;27.13;14.13;;;8.50;99.90;;;;;;4969529;28;21030;-57
2023/04/29 04:54:59;;;;;;;23.98;13.02;;;8.60;99.90;;;;;;4953253;28;20047;-57
2023/04/29 04:57:25;;;;;;;24.08;13.52;;;8.60;99.90;;;;;;4967368;28;20053;-58
2023/04/29 04:59:51;;;;;;;29.35;14.02;;;8.60;99.90;;;;;;4968049;28;21104;-57
2023/04/29 05:02:17;;;;;;;27.02;13.52;;;8.60;99.90;;;;;;4968869;28;20077;-57
2023/04/29 05:04:43;;;;;;;23.90;12.85;;;8.60;99.90;;;;;;4969870;28;20042;-57
2023/04/29 05:07:09;;;;;;;24.00;13.10;;;8.60;99.90;;;;;;4965944;28;20073;-57
2023/04/29 05:09:36;;;;;;;24.40;12.73;;;8.60;99.90;;;;;;4964417;28;20089;-58
2023/04/29 05:12:01;;;;;;;24.70;12.35;;;8.60;99.90;;;;;;4962342;28;20043;-57
2023/04/29 05:14:27;;;;;;;23.88;12.40;;;8.60;99.90;;;;;;4956031;28;20105;-58
2023/04/29 05:16:58;;;;;;;27.02;12.93;;;8.60;99.90;;;;;;4952301;28;20153;-58
2023/04/29 05:19:24;;;;;;;24.02;13.00;;;8.60;99.90;;;;;;4947115;28;20395;-58
2023/04/29 05:21:50;;;;;;;24.58;12.18;;;8.60;99.90;;;;;;4948729;28;20155;-57
2023/04/29 05:24:16;;;;;;;23.90;12.68;;;8.60;99.90;;;;;;4949939;28;21186;-57
2023/04/29 05:26:42;;;;;;;23.83;12.75;;;8.70;99.90;;;;;;4945891;28;20046;-58
2023/04/29 05:29:09;;;;;;;27.98;13.35;;;8.60;99.90;;;;;;4956416;28;20945;-58
2023/04/29 05:31:36;;;;;;;23.98;12.23;;;8.70;99.90;;;;;;4943850;28;20051;-58
2023/04/29 05:34:01;;;;;;;23.40;12.35;;;8.70;99.90;;;;;;4935227;28;20054;-57
2023/04/29 05:36:27;;;;;;;22.45;12.50;;;8.70;99.90;;;;;;4939040;28;20102;-58
2023/04/29 05:38:53;;;;;;;19.40;12.45;;;8.80;99.90;;;;;;4943411;28;20093;-57
2023/04/29 05:41:19;;;;;;;27.75;12.73;;;8.80;99.90;;;;;;4936973;28;20094;-57
2023/04/29 05:43:45;;;;;;;21.40;12.20;;;8.80;99.90;;;;;;4939805;28;20057;-57
2023/04/29 05:46:11;;;;;;;23.60;12.50;;;8.80;99.90;;;;;;4937901;28;20055;-57
2023/04/29 05:48:36;;;;;;;26.33;11.63;;;8.90;99.90;;;;;;4939411;28;20051;-57
2023/04/29 05:51:02;;;;;;;23.00;12.40;;;8.80;99.90;;;;;;4925555;28;20086;-57
2023/04/29 05:53:28;;;;;;;25.00;12.45;;;8.80;99.90;;;;;;4934839;28;20054;-57
2023/04/29 05:55:54;;;;;;;22.65;12.43;;;8.90;99.90;;;;;;4939923;28;20051;-57
2023/04/29 05:58:19;;;;;;;22.38;12.05;;;8.90;99.90;;;;;;4941189;28;20089;-58
2023/04/29 06:00:48;;;;;;;22.02;11.20;;;8.90;99.90;;;;;;4936892;28;20051;-57
2023/04/29 06:03:13;;;;;;;21.85;12.18;;;8.90;99.90;;;;;;4941897;28;20794;-57
2023/04/29 06:05:39;;;;;;;20.23;12.13;;;8.90;99.90;;;;;;4935087;28;20082;-56
2023/04/29 06:08:05;;;;;;;24.05;11.50;;;8.90;99.90;;;;;;4940149;28;20552;-57
2023/04/29 06:10:32;;;;;;;18.42;12.10;;;8.90;99.90;;;;;;4939059;28;20105;-58
2023/04/29 06:12:58;;;;;;;19.77;10.93;;;8.90;99.90;;;;;;4938827;28;20043;-58
2023/04/29 06:15:23;;;;;;;20.08;11.05;;;8.90;99.90;;;;;;4928246;28;20046;-57
2023/04/29 06:17:49;;;;;;;22.00;11.85;;;8.90;99.90;;;;;;4934357;28;20058;-58
2023/04/29 06:20:15;;;;;;;22.58;11.65;;;8.90;99.90;;;;;;4936367;28;20138;-59
2023/04/29 06:22:40;;;;;;;19.75;11.35;;;9.00;99.90;;;;;;4949747;28;20052;-57
2023/04/29 06:25:06;;;;;;;24.85;11.48;;;9.00;99.90;;;;;;4956038;28;20448;-58
2023/04/29 06:27:32;;;;;;;18.88;10.60;;;9.10;99.90;;;;;;4933809;28;20089;-57
2023/04/29 06:29:58;;;;;;;25.13;11.25;;;9.10;99.90;;;;;;4961556;28;20536;-58
2023/04/29 06:32:23;;;;;;;18.15;11.18;;;9.20;99.90;;;;;;4944771;28;20053;-59
2023/04/29 06:34:50;;;;;;;21.50;10.55;;;9.20;99.90;;;;;;4962586;28;20039;-58
2023/04/29 06:37:15;;;;;;;21.63;10.75;;;9.20;99.90;;;;;;4950288;28;20984;-58
2023/04/29 06:39:41;;;;;;;17.23;10.63;;;9.30;99.90;;;;;;4949544;28;20043;-58
2023/04/29 06:42:07;;;;;;;18.73;10.95;;;9.30;99.90;;;;;;4953422;28;20042;-58
2023/04/29 06:44:33;;;;;;;19.92;10.77;;;9.50;99.90;;;;;;4965485;28;20077;-58
2023/04/29 06:46:58;;;;;;;17.85;10.63;;;9.50;99.90;;;;;;4966843;28;20569;-57
2023/04/29 06:49:24;;;;;;;17.38;10.73;;;9.60;99.90;;;;;;4965986;28;20039;-58
2023/04/29 06:51:50;;;;;;;18.55;10.50;;;9.70;99.90;;;;;;4948442;28;20181;-58
2023/04/29 06:54:16;;;;;;;25.42;10.77;;;9.70;99.90;;;;;;4966259;28;20916;-58
2023/04/29 06:56:41;;;;;;;22.55;11.07;;;9.80;99.90;;;;;;4968104;28;20038;-57
2023/04/29 06:59:09;;;;;;;17.15;9.80;;;9.90;99.90;;;;;;4966474;28;20054;-57
2023/04/29 07:01:35;;;;;;;21.27;10.38;;;10.00;99.90;;;;;;4949818;28;20888;-58
2023/04/29 07:04:01;;;;;;;21.50;9.13;;;10.00;99.90;;;;;;4968891;28;20049;-58
2023/04/29 07:06:26;;;;;;;17.90;9.43;;;10.10;99.90;;;;;;4965721;28;22082;-58
2023/04/29 07:08:52;;;;;;;18.83;9.27;;;10.20;99.90;;;;;;4965369;28;20045;-56
2023/04/29 07:11:18;;;;;;;17.35;8.82;;;10.20;99.90;;;;;;4966426;28;20043;-58
2023/04/29 07:13:44;;;;;;;16.60;8.68;;;10.30;99.90;;;;;;4948285;28;21000;-57
2023/04/29 07:16:20;;;;;;;14.68;8.35;;;10.30;99.90;;;;;;4954128;28;20177;-58
2023/04/29 07:18:47;;;;;;;18.27;8.88;;;10.40;99.90;;;;;;4964892;28;20066;-58
2023/04/29 07:21:12;;;;;;;16.45;7.55;;;10.50;99.90;;;;;;4949120;28;20672;-58
2023/04/29 07:23:38;;;;;;;14.98;8.05;;;10.50;99.90;;;;;;4966429;28;20038;-57
2023/04/29 07:26:17;;;;;;;14.80;7.68;;;10.60;99.90;;;;;;4966800;28;20058;-58
2023/04/29 07:28:43;;;;;;;18.90;8.00;;;10.70;99.90;;;;;;4949362;28;20072;-59
2023/04/29 07:31:11;;;;;;;22.08;8.23;;;10.80;99.90;;;;;;4947921;28;20046;-57
2023/04/29 07:33:37;;;;;;;14.88;7.05;;;10.90;99.90;;;;;;4946374;28;20042;-57
2023/04/29 07:36:03;;;;;;;17.15;8.30;;;10.90;99.90;;;;;;4947229;28;20457;-57
2023/04/29 07:38:29;;;;;;;13.60;7.75;;;11.00;99.90;;;;;;4956031;28;20042;-57
2023/04/29 07:40:55;;;;;;;18.67;7.15;;;11.10;99.90;;;;;;4964265;28;20054;-57
2023/04/29 07:43:21;;;;;;;15.07;7.65;;;11.20;99.90;;;;;;4963973;28;20050;-58
2023/04/29 07:45:47;;;;;;;18.63;7.25;;;11.20;99.90;;;;;;4947498;28;20054;-57
2023/04/29 07:48:13;;;;;;;19.67;6.97;;;11.20;99.90;;;;;;4965357;28;20104;-58
2023/04/29 07:50:39;;;;;;;17.52;6.90;;;11.30;99.90;;;;;;4964439;28;20047;-57
2023/04/29 07:53:05;;;;;;;16.20;6.72;;;11.30;99.90;;;;;;4966778;28;20053;-57
2023/04/29 07:55:31;;;;;;;13.05;7.10;;;11.40;99.90;;;;;;4966051;28;20049;-58
2023/04/29 07:58:00;;;;;;;11.48;7.25;;;11.40;99.90;;;;;;4953364;28;20057;-59
2023/04/29 08:00:27;;;;;;;15.07;7.18;;;11.50;99.90;;;;;;4947035;28;20060;-57
2023/04/29 08:02:53;;;;;;;18.05;7.10;;;11.50;99.90;;;;;;4947375;28;20050;-59
2023/04/29 08:05:20;;;;;;;13.75;7.15;;;11.60;99.90;;;;;;4966902;28;20058;-59
2023/04/29 08:07:47;;;;;;;15.45;6.93;;;11.70;99.90;;;;;;4965022;28;20101;-58
2023/04/29 08:10:14;;;;;;;15.18;7.30;;;11.80;99.90;;;;;;4964643;28;20046;-58
2023/04/29 08:12:40;;;;;;;16.95;7.22;;;11.90;99.90;;;;;;4965232;28;20074;-58
2023/04/29 08:15:06;;;;;;;14.60;6.85;;;12.00;99.90;;;;;;4938857;28;20049;-57
2023/04/29 08:17:32;;;;;;;16.92;6.97;;;12.10;99.90;;;;;;4949184;28;20513;-58
2023/04/29 08:19:57;;;;;;;15.05;6.95;;;12.20;99.90;;;;;;4946554;28;20078;-58
2023/04/29 08:22:23;;;;;;;11.75;6.47;;;12.20;99.90;;;;;;4947325;28;20046;-58
2023/04/29 08:24:49;;;;;;;23.23;7.00;;;12.30;99.90;;;;;;4967503;28;20034;-57
2023/04/29 08:27:15;;;;;;;12.18;6.45;;;12.30;99.90;;;;;;4964768;28;20053;-58
2023/04/29 08:29:41;;;;;;;11.32;6.50;;;12.40;99.90;;;;;;4967565;28;20049;-57
2023/04/29 08:32:07;;;;;;;15.30;6.65;;;12.50;99.90;;;;;;4967268;28;20042;-58
2023/04/29 08:34:35;;;;;;;11.73;6.15;;;12.50;99.90;;;;;;4936851;28;20051;-59
2023/04/29 08:37:01;;;;;;;11.80;6.07;;;12.50;99.90;;;;;;4948398;28;20074;-59
2023/04/29 08:39:29;;;;;;;10.63;5.55;;;12.50;99.90;;;;;;4946711;28;20087;-58
2023/04/29 08:41:59;;;;;;;13.70;6.25;;;12.60;99.90;;;;;;4964180;28;20045;-58
2023/04/29 08:44:29;;;;;;;9.43;5.43;;;12.60;99.90;;;;;;4965708;28;20047;-57
2023/04/29 08:46:56;;;;;;;11.45;6.30;;;12.60;99.90;;;;;;4958783;28;20043;-58
2023/04/29 08:49:22;;;;;;;9.10;5.10;;;12.70;99.90;;;;;;4964841;28;20521;-58
2023/04/29 08:51:50;;;;;;;9.32;4.50;;;12.90;99.90;;;;;;4964854;28;20045;-57
2023/04/29 08:54:16;;;;;;;12.20;4.60;;;12.90;99.90;;;;;;4938145;28;20130;-59
2023/04/29 08:56:44;;;;;;;9.43;4.22;;;13.00;99.90;;;;;;4953652;28;20053;-58
2023/04/29 08:59:12;;;;;;;8.60;3.83;;;13.00;99.90;;;;;;4966174;28;20050;-58
2023/04/29 09:01:41;;;;;;;12.65;3.67;;;13.10;99.90;;;;;;4966460;28;20081;-58
2023/04/29 09:04:25;;;;;;;7.40;3.42;;;13.10;99.90;;;;;;4963281;28;20050;-57
2023/04/29 09:06:51;;;;;;;11.68;3.97;;;13.10;99.90;;;;;;4972447;28;20049;-57
2023/04/29 09:09:18;;;;;;;8.15;4.45;;;13.20;99.90;;;;;;4955885;28;20046;-59
2023/04/29 09:11:44;;;;;;;10.05;4.32;;;13.20;99.90;;;;;;4976517;28;20477;-59
2023/04/29 09:14:09;;;;;;;8.70;4.07;;;13.30;99.90;;;;;;4973327;28;20039;-58
2023/04/29 09:16:37;;;;;;;10.70;4.63;;;13.30;99.90;;;;;;4970326;28;20051;-59
2023/04/29 09:19:02;;;;;;;12.43;4.53;;;13.40;99.90;;;;;;4970892;28;20055;-58
2023/04/29 09:21:32;;;;;;;9.30;4.68;;;13.40;99.90;;;;;;4970183;28;20073;-58
2023/04/29 09:24:02;;;;;;;8.40;4.57;;;13.50;99.90;;;;;;4971509;28;20043;-58
2023/04/29 09:26:41;;;;;;;11.55;5.28;;;13.50;99.90;;;;;;4955245;28;20088;-58
2023/04/29 09:29:08;;;;;;;9.13;5.10;;;13.60;99.90;;;;;;4968901;28;20046;-58
2023/04/29 09:31:34;;;;;;;13.25;5.10;;;13.70;99.90;;;;;;4964414;28;20477;-58
2023/04/29 09:34:00;;;;;;;11.05;5.32;;;13.70;99.90;;;;;;4966372;28;20749;-59
2023/04/29 09:36:46;;;;;;;13.13;5.55;;;13.80;99.90;;;;;;4966111;28;20112;-58
2023/04/29 09:39:20;;;;;;;17.50;5.63;;;13.90;99.90;;;;;;4968231;28;20450;-58
2023/04/29 09:41:52;;;;;;;12.23;5.45;;;14.00;99.90;;;;;;4967662;28;20046;-58
2023/04/29 09:44:29;;;;;;;10.02;5.15;;;14.20;99.90;;;;;;4967009;28;20086;-58
2023/04/29 09:47:06;;;;;;;14.07;6.00;;;14.30;99.90;;;;;;4965017;28;20078;-59
2023/04/29 09:49:39;;;;;;;14.50;5.55;;;14.30;99.90;;;;;;4965771;28;20074;-57
2023/04/29 09:52:09;;;;;;;12.20;5.50;;;14.30;99.90;;;;;;4966604;28;20073;-58
2023/04/29 09:54:37;;;;;;;11.55;6.22;;;14.30;99.90;;;;;;4946965;28;20105;-58
2023/04/29 09:57:07;;;;;;;12.20;5.75;;;14.40;99.90;;;;;;4965425;28;20046;-59
2023/04/29 09:59:38;;;;;;;11.85;6.28;;;14.40;99.90;;;;;;4966925;28;20080;-58
2023/04/29 10:02:16;;;;;;;12.60;7.28;;;14.40;99.90;;;;;;4966353;28;20077;-58
2023/04/29 10:04:52;;;;;;;9.85;6.90;;;14.50;99.90;;;;;;4938368;28;20509;-58
2023/04/29 10:07:19;;;;;;;12.02;6.72;;;14.50;99.90;;;;;;4952198;28;20054;-57
2023/04/29 10:09:46;;;;;;;11.88;6.32;;;14.60;99.90;;;;;;4966369;28;20081;-58
2023/04/29 10:12:16;;;;;;;10.25;5.80;;;14.60;99.90;;;;;;4968446;28;20039;-58
2023/04/29 10:14:47;;;;;;;10.02;6.00;;;14.70;99.90;;;;;;4970543;28;20158;-58
2023/04/29 10:17:24;;;;;;;12.07;6.20;;;14.80;99.90;;;;;;4968260;28;20432;-59
2023/04/29 10:20:07;;;;;;;10.35;5.45;;;14.90;99.90;;;;;;4968345;28;20054;-59
2023/04/29 10:22:44;;;;;;;13.32;5.90;;;15.00;99.00;;;;;;4969544;28;20056;-58
2023/04/29 10:25:11;;;;;;;11.85;5.47;;;15.00;98.80;;;;;;4951619;28;20054;-58
2023/04/29 10:27:38;;;;;;;9.55;4.65;;;15.00;98.30;;;;;;4968186;28;21031;-58
2023/04/29 10:30:08;;;;;;;9.80;4.70;;;15.00;98.00;;;;;;4969804;28;20090;-58
2023/04/29 10:32:36;;;;;;;10.02;4.25;;;15.10;97.80;;;;;;4968191;28;20054;-59
2023/04/29 10:35:03;;;;;;;6.85;3.45;;;15.10;97.40;;;;;;4969990;28;20034;-58
2023/04/29 10:37:30;;;;;;;5.18;2.35;;;15.30;96.30;;;;;;4949289;28;20074;-58
2023/04/29 10:40:15;;;;;;;3.85;2.63;;;15.30;93.00;;;;;;4969439;28;20051;-58
2023/04/29 10:42:41;;;;;;;5.35;2.80;;;15.40;91.50;;;;;;4953005;28;20061;-58
2023/04/29 10:45:33;;;;;;;4.53;2.65;;;15.30;90.90;;;;;;4968593;28;20050;-58
2023/04/29 10:48:04;;;;;;;4.47;2.90;;;15.50;90.90;;;;;;4969483;28;20046;-57
2023/04/29 10:50:33;;;;;;;7.32;2.70;;;15.60;91.80;;;;;;4967528;28;20042;-58
2023/04/29 10:53:04;;;;;;;4.88;2.10;;;15.70;90.90;;;;;;4969142;28;20081;-58
2023/04/29 10:55:30;;;;;;;3.67;1.73;;;15.90;90.50;;;;;;4967883;28;20042;-58
2023/04/29 10:57:56;;;;;;;5.28;1.88;;;15.90;85.30;;;;;;4949330;28;20857;-58
2023/04/29 11:00:26;;;;;;;4.05;1.90;;;16.00;84.80;;;;;;4968079;28;20162;-59
2023/04/29 11:02:57;;;;;;;6.35;2.47;;;16.20;84.30;;;;;;4967827;28;20050;-58
2023/04/29 11:05:41;;;;;;;4.60;2.30;;;16.20;82.50;;;;;;4956657;28;20046;-57
2023/04/29 11:08:15;;;;;;;5.55;2.92;;;16.20;81.80;;;;;;4967898;28;20790;-57
2023/04/29 11:10:41;;;;;;;4.95;2.42;;;16.20;81.30;;;;;;4966692;28;20043;-58
2023/04/29 11:13:27;;;;;;;5.57;3.30;;;16.40;82.00;;;;;;4950201;28;20046;-57
2023/04/29 11:16:13;;;;;;;5.72;2.80;;;16.40;80.10;;;;;;4949975;28;20125;-57
2023/04/29 11:19:04;;;;;;;9.05;3.33;;;16.40;78.20;;;;;;4953628;28;20050;-57
2023/04/29 11:21:31;;;;;;;9.40;3.10;;;16.40;81.40;;;;;;4968093;28;20050;-57
2023/04/29 11:23:57;;;;;;;6.65;3.80;;;16.40;82.30;;;;;;4966784;28;20059;-58
2023/04/29 11:26:23;;;;;;;9.90;3.53;;;16.60;85.50;;;;;;4966333;28;20051;-56
2023/04/29 11:28:53;;;;;;;7.13;3.22;;;16.70;86.10;;;;;;4965029;28;20493;-58
2023/04/29 11:31:19;;;;;;;5.07;2.85;;;16.80;86.10;;;;;;4967799;28;20034;-57
2023/04/29 11:33:46;;;;;;;5.88;3.30;;;16.80;83.70;;;;;;4948245;28;21152;-58
2023/04/29 11:36:11;;;;;;;6.68;3.28;;;16.80;84.40;;;;;;4950477;28;20061;-57
2023/04/29 11:38:40;;;;;;;8.80;3.85;;;16.90;84.10;;;;;;4965984;28;20055;-57
2023/04/29 11:41:06;;;;;;;6.70;4.07;;;16.90;83.90;;;;;;4964871;28;20093;-58
2023/04/29 11:43:31;;;;;;;7.32;3.67;;;16.90;85.20;;;;;;4965509;28;20038;-59
2023/04/29 11:45:57;;;;;;;6.57;2.92;;;16.90;84.30;;;;;;4949268;28;20161;-57
2023/04/29 11:48:25;;;;;;;7.18;3.05;;;16.90;84.20;;;;;;4966537;28;20096;-58
2023/04/29 11:50:53;;;;;;;4.90;2.55;;;17.00;84.40;;;;;;4949483;28;20093;-58
2023/04/29 11:53:20;;;;;;;6.95;2.85;;;17.00;83.00;;;;;;4965904;28;20043;-58
2023/04/29 11:55:47;;;;;;;4.75;2.33;;;17.10;83.20;;;;;;4947238;28;20543;-56
2023/04/29 11:58:16;;;;;;;5.80;2.25;;;17.20;82.80;;;;;;4948464;28;20053;-58
2023/04/29 12:00:44;;;;;;;3.88;2.08;;;17.30;79.50;;;;;;4966170;28;20552;-58
2023/04/29 12:03:17;;;;;;;5.60;2.10;;;17.40;79.20;;;;;;4966305;28;20089;-58
2023/04/29 12:05:53;;;;;;;4.93;2.20;;;17.30;77.30;;;;;;4965430;28;20054;-58
2023/04/29 12:08:23;;;;;;;6.32;2.25;;;17.30;77.70;;;;;;4940251;28;20042;-58
2023/04/29 12:10:50;;;;;;;7.82;2.30;;;17.40;76.60;;;;;;4966963;28;20043;-57
2023/04/29 12:13:17;;;;;;;6.40;2.30;;;17.40;76.00;;;;;;4965587;28;20042;-57
2023/04/29 12:15:45;;;;;;;5.72;3.05;;;17.50;75.90;;;;;;4955865;28;20493;-57
2023/04/29 12:18:11;;;;;;;7.80;2.80;;;17.50;77.40;;;;;;4954294;28;20833;-57
2023/04/29 12:20:38;;;;;;;6.50;2.45;;;17.60;79.00;;;;;;4966932;28;20158;-58
2023/04/29 12:23:15;;;;;;;8.43;2.45;;;17.70;76.60;;;;;;4950232;28;20489;-58
2023/04/29 12:25:41;;;;;;;3.72;2.20;;;17.70;76.40;;;;;;4948816;28;20050;-57
2023/04/29 12:28:13;;;;;;;5.00;2.38;;;17.80;76.60;;;;;;4965977;28;20481;-58
2023/04/29 12:30:39;;;;;;;2.70;1.63;;;17.80;74.30;;;;;;4938441;28;20054;-58
2023/04/29 12:33:08;;;;;;;5.70;2.35;;;18.00;75.50;;;;;;4965518;28;20043;-57
2023/04/29 12:35:35;;;;;;;5.03;2.17;;;18.20;73.70;;;;;;4948715;28;20057;-58
2023/04/29 12:38:01;;;;;;;4.95;1.98;;;18.40;74.30;;;;;;4964863;28;20070;-58
2023/04/29 12:40:27;;;;;;;6.32;2.65;;;18.50;73.70;;;;;;4954104;28;20596;-58
2023/04/29 12:42:53;;;;;;;3.25;1.90;;;18.70;74.10;;;;;;4965553;28;20045;-58